createdAt,value
2023-11-12T00:09:13.407Z,1005.62
2023-11-12T00:19:18.762Z,1005.65
2023-11-12T00:29:23.800Z,1005.66
2023-11-12T00:39:28.833Z,1005.73
2023-11-12T00:49:34.196Z,1005.73
2023-11-12T00:59:39.386Z,1005.79
2023-11-12T01:09:44.721Z,1005.91
2023-11-12T01:19:50.757Z,1005.90
2023-11-12T01:29:55.934Z,1005.95
2023-11-12T01:40:01.427Z,1005.96
2023-11-12T01:50:06.589Z,1005.87
2023-11-12T02:00:11.906Z,1005.87
2023-11-12T02:10:17.337Z,1005.85
2023-11-12T02:20:22.740Z,1005.79
2023-11-12T02:30:28.095Z,1005.82
2023-11-12T02:40:33.506Z,1005.86
2023-11-12T02:50:38.441Z,1005.82
2023-11-12T03:00:43.606Z,1005.88
2023-11-12T03:10:48.899Z,1005.83
2023-11-12T03:20:53.921Z,1005.88
2023-11-12T03:30:59.285Z,1005.90
2023-11-12T03:41:04.591Z,1005.88
2023-11-12T03:51:09.676Z,1005.93
2023-11-12T04:01:15.071Z,1005.92
2023-11-12T04:11:20.686Z,1005.97
2023-11-12T04:21:26.032Z,1006.09
2023-11-12T04:31:31.443Z,1006.00
2023-11-12T04:41:36.355Z,1005.97
2023-11-12T04:51:41.518Z,1005.99
2023-11-12T05:01:46.844Z,1006.07
2023-11-12T05:11:52.411Z,1006.09
2023-11-12T05:21:57.629Z,1006.24
2023-11-12T05:32:02.665Z,1006.42
2023-11-12T05:42:07.851Z,1006.34
2023-11-12T05:52:13.022Z,1006.52
2023-11-12T06:02:18.056Z,1006.49
2023-11-12T06:12:23.329Z,1006.53
2023-11-12T06:22:28.797Z,1006.64
2023-11-12T06:32:33.782Z,1006.70
2023-11-12T06:42:39.172Z,1006.90
2023-11-12T06:52:44.575Z,1006.91
2023-11-12T07:02:49.621Z,1006.95
2023-11-12T07:12:55.232Z,1007.01
2023-11-12T07:23:00.604Z,1007.07
2023-11-12T07:33:05.912Z,1007.15
2023-11-12T07:43:11.000Z,1007.29
2023-11-12T07:53:16.090Z,1007.30
2023-11-12T08:03:22.631Z,1007.29
2023-11-12T08:13:30.329Z,1007.35
2023-11-12T08:23:35.667Z,1007.41
2023-11-12T08:33:41.153Z,1007.42
2023-11-12T08:43:46.654Z,1007.47
2023-11-12T08:53:51.900Z,1007.57
2023-11-12T09:03:57.192Z,1007.54
2023-11-12T09:14:02.509Z,1007.58
2023-11-12T09:24:07.829Z,1007.62
2023-11-12T09:34:13.828Z,1007.66
2023-11-12T09:44:19.266Z,1007.69
2023-11-12T09:54:24.692Z,1007.69
2023-11-12T10:04:30.773Z,1007.71
2023-11-12T10:14:36.128Z,1007.76
2023-11-12T10:24:41.506Z,1007.71
2023-11-12T10:34:47.912Z,1007.78
2023-11-12T10:46:12.754Z,1007.80
2023-11-12T10:56:18.067Z,1007.79
2023-11-12T11:06:23.598Z,1007.82
2023-11-12T11:16:31.187Z,1007.85
2023-11-12T11:26:36.940Z,1007.88
2023-11-12T11:36:42.620Z,1007.85
2023-11-12T11:46:47.864Z,1007.94
2023-11-12T11:56:53.340Z,1007.96
2023-11-12T12:06:58.668Z,1007.92
2023-11-12T12:17:03.819Z,1008.01
2023-11-12T12:27:09.076Z,1008.02
2023-11-12T12:37:14.846Z,1008.11
2023-11-12T12:47:21.262Z,1008.10
2023-11-12T12:57:26.361Z,1008.03
2023-11-12T13:07:31.568Z,1008.09
2023-11-12T13:17:37.018Z,1008.12
2023-11-12T13:27:42.347Z,1008.17
2023-11-12T13:37:47.729Z,1008.16
2023-11-12T13:47:54.769Z,1008.11
2023-11-12T13:58:03.827Z,1008.14
2023-11-12T14:08:12.421Z,1008.25
2023-11-12T14:18:18.864Z,1008.27
2023-11-12T14:29:43.790Z,1008.26
2023-11-12T14:39:48.295Z,1008.38
2023-11-12T14:49:53.476Z,1008.42
2023-11-12T14:59:59.152Z,1008.46
2023-11-12T15:10:05.564Z,1008.46
2023-11-12T15:20:11.084Z,1008.46
2023-11-12T15:30:16.034Z,1008.45
2023-11-12T15:40:21.975Z,1008.60
2023-11-12T15:50:27.611Z,1008.65
2023-11-12T16:00:33.029Z,1008.75
2023-11-12T16:10:38.296Z,1008.84
2023-11-12T16:20:44.321Z,1008.98
2023-11-12T16:30:49.759Z,1009.02
2023-11-12T16:40:55.100Z,1009.12
2023-11-12T16:51:00.647Z,1009.08
2023-11-12T17:01:05.906Z,1009.18
2023-11-12T17:11:12.440Z,1009.20
2023-11-12T17:21:17.663Z,1009.22
2023-11-12T17:31:22.979Z,1009.20
2023-11-12T17:41:28.222Z,1009.21
2023-11-12T17:51:33.248Z,1009.31
2023-11-12T18:01:38.700Z,1009.64
2023-11-12T18:11:45.189Z,1009.43
2023-11-12T18:21:50.540Z,1009.45
2023-11-12T18:31:57.317Z,1009.45
2023-11-12T18:42:05.363Z,1009.53
2023-11-12T18:52:10.785Z,1009.61
2023-11-12T19:02:16.171Z,1009.56
2023-11-12T19:12:21.727Z,1009.58
2023-11-12T19:22:27.107Z,1009.59
2023-11-12T19:32:32.385Z,1009.56
2023-11-12T19:42:38.184Z,1009.46
2023-11-12T19:52:43.521Z,1009.54
2023-11-12T20:02:49.423Z,1009.68
2023-11-12T20:12:54.757Z,1009.75
2023-11-12T20:23:00.360Z,1009.76
2023-11-12T20:33:06.094Z,1009.86
2023-11-12T20:43:11.664Z,1009.95
2023-11-12T20:53:17.281Z,1010.00
2023-11-12T21:03:22.535Z,1010.13
2023-11-12T21:13:27.963Z,1010.16
2023-11-12T21:23:33.606Z,1010.17
2023-11-12T21:33:38.697Z,1010.26
2023-11-12T21:43:44.032Z,1010.26
2023-11-12T21:53:49.568Z,1010.35
2023-11-12T22:03:54.629Z,1010.25
2023-11-12T22:14:00.065Z,1010.28
2023-11-12T22:24:05.040Z,1010.37
2023-11-12T22:34:11.266Z,1010.37
2023-11-12T22:44:16.642Z,1010.35
2023-11-12T22:54:21.987Z,1010.53
2023-11-12T23:04:27.509Z,1010.54
2023-11-12T23:14:32.722Z,1010.64
2023-11-12T23:24:38.080Z,1010.63
2023-11-12T23:34:43.102Z,1010.59
2023-11-12T23:44:49.092Z,1010.63
2023-11-12T23:54:54.112Z,1010.71
